Ana Sayfa
METAR-TAF:

METAR-TAF

Havaalanları :

Norwood Memorial Airport

Norwood, Massachusetts, Amerika Birleşik Devletleri

Enlem: 42-11-27N, Boylam: 071-10-26W, yükseklik: 15 m

Güncel hava durumu gözlemi

Rapor saat 07:53 UTC de 18 dakika önce yapıldı.
Rüzgar kuzeydoğudan 3 kt
Sıcaklık 10°C
Nem 87%
Basınç 1025 hPa
Görüş mesafesi: 6.4 km
800 ft yükseklikte çok bulutlu
Pus

METAR: KOWD 250753Z AUTO 04003KT 4SM BR OVC008 10/08 A3027 RMK AO2 RAB10E21 SLP249 P0000 T01000078

Saat: 04:11 (08:11 UTC)


TAF: eksik

4.000'den fazla havaalanı için hava durumu gözlemleri ve tahminleri (METAR ve TAF raporları).

Kullanılabilir istasyonlar harita üzerinde sarı ve kırmızı noktalarla gösterilir.

İstasyonun adını görmek için fareyi noktanın üzerinde gezdirin.

Sonrasında hava gözlem ve tahminlerini görmek için tıklayın.

Haritayı değiştirmek için: yaklaştırmak için siyah artı işaretli yeşil düğmeye ve uzaklaştırmak için de eksi işaretli düğmeye hızla tıklayın; bitişik haritalar için yeşil okları kullanın.


METAR-TAF: